Time;durP1;ratioP1;P1;durP2;ratioP2;P2;SDS_P1;SDS_P2;PMS_P1;PMS_P2;Temp;Humidity;BMP_temperature;BMP_pressure;BME280_temperature;BME280_humidity;BME280_pressure;Samples;Min_cycle;Max_cycle;Signal;HPM_P1;HPM_P2
2022/04/05 00:02:07;;;;;;;;;;;19.80;39.10;;;;;;5032702;28;19913;-60
2022/04/05 00:04:33;;;;;;;;;;;19.80;39.10;;;;;;5037936;28;19913;-60
2022/04/05 00:06:58;;;;;;;;;;;19.80;39.20;;;;;;5068388;28;19920;-60
2022/04/05 00:09:24;;;;;;;;;;;19.80;39.80;;;;;;5062769;28;19939;-60
2022/04/05 00:11:49;;;;;;;;;;;19.80;39.20;;;;;;5048336;28;19956;-60
2022/04/05 00:14:15;;;;;;;;;;;19.80;39.20;;;;;;5058788;28;19917;-60
2022/04/05 00:16:40;;;;;;;;;;;19.80;39.20;;;;;;5064855;28;19920;-60
2022/04/05 00:19:05;;;;;;;;;;;19.80;39.20;;;;;;5034041;28;19995;-60
2022/04/05 00:21:31;;;;;;;;;;;19.80;39.30;;;;;;5049420;28;19921;-60
2022/04/05 00:23:56;;;;;;;;;;;19.70;39.30;;;;;;5046452;28;19966;-60
2022/04/05 00:26:22;;;;;;;;;;;19.70;39.30;;;;;;5060157;28;19909;-60
2022/04/05 00:28:48;;;;;;;;;;;19.70;39.30;;;;;;5061322;28;19912;-60
2022/04/05 00:31:13;;;;;;;;;;;19.70;39.30;;;;;;5048992;28;20305;-61
2022/04/05 00:33:39;;;;;;;;;;;19.70;39.30;;;;;;5033608;28;19952;-60
2022/04/05 00:36:04;;;;;;;;;;;19.60;39.30;;;;;;5048758;28;19912;-59
2022/04/05 00:38:30;;;;;;;;;;;19.60;39.30;;;;;;5065137;28;19927;-60
2022/04/05 00:40:55;;;;;;;;;;;19.50;39.30;;;;;;5065009;28;19908;-60
2022/04/05 00:43:21;;;;;;;;;;;19.60;39.40;;;;;;5029154;28;19948;-60
2022/04/05 00:45:46;;;;;;;;;;;19.50;39.40;;;;;;5033569;28;19923;-59
2022/04/05 00:48:12;;;;;;;;;;;19.60;39.50;;;;;;5063094;28;20368;-59
2022/04/05 00:50:38;;;;;;;;;;;19.60;39.40;;;;;;5047776;28;19912;-60
2022/04/05 00:53:05;;;;;;;;;;;19.50;39.40;;;;;;5060552;28;19908;-60
2022/04/05 00:55:31;;;;;;;;;;;19.50;39.40;;;;;;5051949;28;20356;-60
2022/04/05 00:57:56;;;;;;;;;;;19.50;39.30;;;;;;5051905;28;19912;-61
2022/04/05 01:00:22;;;;;;;;;;;19.50;39.40;;;;;;5047883;28;20437;-60
2022/04/05 01:02:50;;;;;;;;;;;19.40;39.30;;;;;;5033542;28;19913;-59
2022/04/05 01:05:17;;;;;;;;;;;19.40;39.40;;;;;;5033454;28;19918;-60
2022/04/05 01:07:42;;;;;;;;;;;19.40;39.50;;;;;;5063361;28;19942;-60
2022/04/05 01:10:08;;;;;;;;;;;19.40;39.40;;;;;;5063090;28;19909;-60
2022/04/05 01:12:33;;;;;;;;;;;19.40;39.30;;;;;;5061135;28;19923;-60
2022/04/05 01:14:59;;;;;;;;;;;19.40;39.40;;;;;;5062735;28;19959;-60
2022/04/05 01:17:24;;;;;;;;;;;19.60;40.20;;;;;;5045000;28;20270;-60
2022/04/05 01:19:50;;;;;;;;;;;19.60;39.40;;;;;;5048325;28;20342;-60
2022/04/05 01:22:16;;;;;;;;;;;19.50;39.50;;;;;;5062696;28;19999;-60
2022/04/05 01:24:41;;;;;;;;;;;19.50;39.60;;;;;;5057703;28;19913;-59
2022/04/05 01:27:07;;;;;;;;;;;19.60;39.60;;;;;;5029842;28;20308;-59
2022/04/05 01:29:32;;;;;;;;;;;19.70;39.50;;;;;;5046019;28;19913;-59
2022/04/05 01:32:05;;;;;;;;;;;19.90;39.20;;;;;;5043380;28;20085;-60
2022/04/05 01:34:31;;;;;;;;;;;20.20;38.80;;;;;;5037206;28;20386;-60
2022/04/05 01:36:57;;;;;;;;;;;20.60;38.50;;;;;;5029380;28;19920;-60
2022/04/05 01:39:24;;;;;;;;;;;20.80;38.00;;;;;;5038013;28;19913;-61
2022/04/05 01:41:53;;;;;;;;;;;21.00;37.40;;;;;;5032697;28;19920;-59
2022/04/05 01:44:19;;;;;;;;;;;21.20;37.20;;;;;;5044537;28;19917;-60
2022/04/05 01:46:44;;;;;;;;;;;21.30;37.00;;;;;;5065245;28;19923;-60
2022/04/05 01:49:10;;;;;;;;;;;21.30;36.90;;;;;;5064567;28;19913;-60
2022/04/05 01:51:36;;;;;;;;;;;21.30;36.90;;;;;;5044329;28;19995;-60
2022/04/05 01:54:05;;;;;;;;;;;21.30;36.90;;;;;;5046852;28;19982;-60
2022/04/05 01:56:31;;;;;;;;;;;21.30;36.90;;;;;;5063261;28;19958;-59
2022/04/05 01:58:57;;;;;;;;;;;21.30;36.90;;;;;;5042660;28;19912;-60
2022/04/05 02:01:22;;;;;;;;;;;21.30;36.90;;;;;;5047815;28;19913;-60
2022/04/05 02:03:48;;;;;;;;;;;21.30;36.80;;;;;;5042839;28;19920;-60
2022/04/05 02:06:13;;;;;;;;;;;21.40;36.80;;;;;;5046406;28;19916;-60
2022/04/05 02:08:39;;;;;;;;;;;21.40;36.70;;;;;;5061755;28;19990;-60
2022/04/05 02:11:04;;;;;;;;;;;21.40;36.60;;;;;;5060252;28;19917;-60
2022/04/05 02:13:29;;;;;;;;;;;21.40;36.60;;;;;;5064571;28;20019;-60
2022/04/05 02:15:55;;;;;;;;;;;21.40;36.60;;;;;;5042002;28;19913;-60
2022/04/05 02:18:20;;;;;;;;;;;21.30;36.50;;;;;;5044015;28;19974;-60
2022/04/05 02:20:49;;;;;;;;;;;21.30;36.40;;;;;;5042460;28;20350;-60
2022/04/05 02:23:14;;;;;;;;;;;21.30;36.40;;;;;;5043194;28;20020;-60
2022/04/05 02:25:40;;;;;;;;;;;21.30;36.40;;;;;;5061800;28;19992;-60
2022/04/05 02:28:06;;;;;;;;;;;21.30;36.40;;;;;;5068401;28;19970;-60
2022/04/05 02:30:34;;;;;;;;;;;21.30;36.40;;;;;;5052087;28;19936;-60
2022/04/05 02:32:59;;;;;;;;;;;21.20;36.30;;;;;;5064918;28;19921;-60
2022/04/05 02:35:25;;;;;;;;;;;21.20;36.30;;;;;;5052577;28;19916;-60
2022/04/05 02:37:50;;;;;;;;;;;21.20;36.40;;;;;;5055172;28;19927;-60
2022/04/05 02:40:16;;;;;;;;;;;21.20;36.50;;;;;;5063378;28;19924;-60
2022/04/05 02:42:41;;;;;;;;;;;21.10;36.50;;;;;;5046456;28;19920;-60
2022/04/05 02:45:07;;;;;;;;;;;21.10;36.50;;;;;;5062302;28;19920;-60
2022/04/05 02:47:33;;;;;;;;;;;21.10;36.50;;;;;;5066162;28;19917;-60
2022/04/05 02:49:59;;;;;;;;;;;21.00;36.50;;;;;;5044298;28;20007;-60
2022/04/05 02:52:24;;;;;;;;;;;21.00;36.60;;;;;;5067478;28;20435;-59
2022/04/05 02:54:50;;;;;;;;;;;21.00;36.60;;;;;;5039450;28;19917;-60
2022/04/05 02:57:18;;;;;;;;;;;21.00;36.70;;;;;;5065312;28;19912;-60
2022/04/05 02:59:44;;;;;;;;;;;21.00;36.70;;;;;;5029419;28;20403;-60
2022/04/05 03:02:09;;;;;;;;;;;20.90;36.70;;;;;;5061729;28;19916;-60
2022/04/05 03:04:36;;;;;;;;;;;20.90;36.70;;;;;;5051853;28;20284;-59
2022/04/05 03:07:02;;;;;;;;;;;20.90;36.70;;;;;;5045239;28;19947;-60
2022/04/05 03:09:28;;;;;;;;;;;21.00;36.80;;;;;;5034204;28;19916;-60
2022/04/05 03:11:55;;;;;;;;;;;21.00;36.80;;;;;;5064923;28;19912;-60
2022/04/05 03:14:20;;;;;;;;;;;21.00;36.70;;;;;;5047712;28;19943;-60
2022/04/05 03:16:46;;;;;;;;;;;21.00;36.70;;;;;;5064017;28;19912;-60
2022/04/05 03:19:12;;;;;;;;;;;20.90;36.70;;;;;;5047139;28;19912;-60
2022/04/05 03:21:37;;;;;;;;;;;20.90;36.70;;;;;;5068278;28;20388;-60
2022/04/05 03:24:03;;;;;;;;;;;20.80;36.80;;;;;;5043514;28;19983;-60
2022/04/05 03:26:28;;;;;;;;;;;20.80;37.00;;;;;;5064504;28;19946;-60
2022/04/05 03:28:54;;;;;;;;;;;20.70;37.00;;;;;;5053637;28;19935;-60
2022/04/05 03:31:19;;;;;;;;;;;20.70;37.10;;;;;;5043266;28;19921;-60
2022/04/05 03:33:46;;;;;;;;;;;20.60;37.20;;;;;;5041882;28;20613;-59
2022/04/05 03:36:11;;;;;;;;;;;20.60;37.20;;;;;;5035480;28;19913;-61
2022/04/05 03:38:37;;;;;;;;;;;20.70;37.30;;;;;;5044769;28;20529;-59
2022/04/05 03:41:02;;;;;;;;;;;20.70;37.20;;;;;;5064092;28;19920;-59
2022/04/05 03:43:28;;;;;;;;;;;20.80;37.20;;;;;;5040457;28;19917;-60
2022/04/05 03:45:53;;;;;;;;;;;20.80;37.00;;;;;;5049036;28;19916;-60
2022/04/05 03:48:18;;;;;;;;;;;20.80;36.90;;;;;;5057165;28;20331;-60
2022/04/05 03:50:44;;;;;;;;;;;20.90;36.80;;;;;;5064921;28;20299;-60
2022/04/05 03:53:09;;;;;;;;;;;20.90;36.70;;;;;;5064926;28;19916;-60
2022/04/05 03:55:35;;;;;;;;;;;20.90;36.70;;;;;;5034666;28;19920;-60
2022/04/05 03:58:01;;;;;;;;;;;20.90;36.60;;;;;;5067650;28;19921;-60
2022/04/05 04:00:26;;;;;;;;;;;21.00;36.70;;;;;;5068068;28;20418;-60
2022/04/05 04:02:52;;;;;;;;;;;21.00;36.70;;;;;;5065960;28;19947;-60
2022/04/05 04:05:20;;;;;;;;;;;21.00;36.70;;;;;;5058526;28;20391;-60
2022/04/05 04:07:46;;;;;;;;;;;21.00;36.60;;;;;;5045293;28;19917;-60
2022/04/05 04:10:12;;;;;;;;;;;21.00;36.60;;;;;;5033229;28;20015;-60
2022/04/05 04:12:37;;;;;;;;;;;21.00;36.50;;;;;;5046274;28;20328;-60
2022/04/05 04:15:03;;;;;;;;;;;21.00;36.50;;;;;;5061224;28;19912;-59
2022/04/05 04:17:28;;;;;;;;;;;21.00;36.60;;;;;;5068525;28;19936;-60
2022/04/05 04:19:54;;;;;;;;;;;21.00;36.70;;;;;;5049303;28;20370;-59
2022/04/05 04:22:19;;;;;;;;;;;21.00;36.70;;;;;;5046862;28;19925;-60
2022/04/05 04:24:44;;;;;;;;;;;21.00;36.70;;;;;;5048932;28;19923;-59
2022/04/05 04:27:13;;;;;;;;;;;20.90;36.60;;;;;;5052159;28;20467;-60
2022/04/05 04:29:38;;;;;;;;;;;20.90;36.70;;;;;;5061989;28;19916;-60
2022/04/05 04:32:04;;;;;;;;;;;20.90;36.80;;;;;;5030706;28;20404;-60
2022/04/05 04:34:30;;;;;;;;;;;20.80;36.80;;;;;;5048582;28;19916;-60
2022/04/05 04:36:56;;;;;;;;;;;20.80;36.90;;;;;;5032092;28;19999;-60
2022/04/05 04:39:21;;;;;;;;;;;20.80;36.90;;;;;;5046686;28;20007;-59
2022/04/05 04:41:47;;;;;;;;;;;20.80;36.90;;;;;;5061409;28;20291;-59
2022/04/05 04:44:12;;;;;;;;;;;20.80;36.90;;;;;;5047573;28;19967;-60
2022/04/05 04:46:38;;;;;;;;;;;20.70;36.90;;;;;;5044813;28;19958;-60
2022/04/05 04:49:03;;;;;;;;;;;20.80;37.70;;;;;;5057732;28;19917;-60
2022/04/05 04:51:29;;;;;;;;;;;20.70;37.00;;;;;;5044024;28;20353;-60
2022/04/05 04:53:54;;;;;;;;;;;20.70;36.90;;;;;;5047341;28;19917;-60
2022/04/05 04:56:19;;;;;;;;;;;20.80;36.90;;;;;;5063907;28;19917;-60
2022/04/05 04:58:45;;;;;;;;;;;20.80;37.00;;;;;;5061419;28;19919;-60
2022/04/05 05:01:10;;;;;;;;;;;20.80;36.90;;;;;;5061613;28;19974;-59
2022/04/05 05:03:36;;;;;;;;;;;20.80;36.90;;;;;;5044535;28;19913;-60
2022/04/05 05:06:02;;;;;;;;;;;20.80;36.90;;;;;;5039318;28;19920;-60
2022/04/05 05:08:27;;;;;;;;;;;20.80;36.90;;;;;;5051295;28;19924;-60
2022/04/05 05:10:53;;;;;;;;;;;20.80;36.80;;;;;;5041157;28;19913;-60
2022/04/05 05:13:20;;;;;;;;;;;20.80;36.80;;;;;;5046610;28;20359;-60
2022/04/05 05:15:46;;;;;;;;;;;20.80;36.90;;;;;;5037129;28;19917;-60
2022/04/05 05:18:11;;;;;;;;;;;20.70;36.80;;;;;;5031722;28;19916;-60
2022/04/05 05:20:37;;;;;;;;;;;20.70;36.90;;;;;;5043284;28;20320;-60
2022/04/05 05:23:02;;;;;;;;;;;20.70;36.90;;;;;;5050462;28;19917;-60
2022/04/05 05:25:28;;;;;;;;;;;20.70;36.90;;;;;;5031137;28;20383;-60
2022/04/05 05:27:53;;;;;;;;;;;20.70;36.90;;;;;;5061232;28;20019;-61
2022/04/05 05:30:19;;;;;;;;;;;20.70;36.90;;;;;;5049212;28;19962;-60
2022/04/05 05:32:44;;;;;;;;;;;20.70;36.90;;;;;;5047623;28;20003;-61
2022/04/05 05:35:10;;;;;;;;;;;20.70;37.00;;;;;;5042862;28;20713;-60
2022/04/05 05:37:36;;;;;;;;;;;20.70;37.00;;;;;;5049922;28;19999;-60
2022/04/05 05:40:01;;;;;;;;;;;20.70;36.90;;;;;;5049962;28;19927;-60
2022/04/05 05:42:27;;;;;;;;;;;20.70;37.00;;;;;;5064640;28;19917;-60
2022/04/05 05:44:52;;;;;;;;;;;20.70;37.10;;;;;;5039625;28;19913;-60
2022/04/05 05:47:18;;;;;;;;;;;20.60;37.10;;;;;;5046728;28;20510;-60
2022/04/05 05:49:43;;;;;;;;;;;20.60;37.00;;;;;;5045652;28;19927;-60
2022/04/05 05:52:09;;;;;;;;;;;20.60;37.10;;;;;;5063799;28;19917;-60
2022/04/05 05:54:34;;;;;;;;;;;20.60;37.10;;;;;;5032207;28;19916;-60
2022/04/05 05:57:00;;;;;;;;;;;20.60;37.10;;;;;;5049702;28;19920;-60
2022/04/05 05:59:26;;;;;;;;;;;20.60;37.10;;;;;;5049384;28;19975;-59
2022/04/05 06:01:51;;;;;;;;;;;20.60;37.10;;;;;;5064696;28;20401;-60
2022/04/05 06:04:17;;;;;;;;;;;20.60;37.00;;;;;;5070032;28;20012;-60
2022/04/05 06:06:43;;;;;;;;;;;20.60;37.00;;;;;;5069793;28;19938;-60
2022/04/05 06:09:08;;;;;;;;;;;20.60;37.00;;;;;;5044544;28;19924;-60
2022/04/05 06:11:34;;;;;;;;;;;20.60;37.10;;;;;;5069130;28;19982;-60
2022/04/05 06:13:59;;;;;;;;;;;20.60;37.00;;;;;;5043737;28;19917;-60
2022/04/05 06:16:24;;;;;;;;;;;20.60;37.10;;;;;;5054128;28;20011;-60
2022/04/05 06:18:50;;;;;;;;;;;20.60;37.10;;;;;;5037321;28;19917;-60
2022/04/05 06:21:15;;;;;;;;;;;20.60;37.10;;;;;;5048123;28;19999;-60
2022/04/05 06:23:41;;;;;;;;;;;20.60;37.10;;;;;;5075503;28;19917;-59
2022/04/05 06:26:06;;;;;;;;;;;20.60;37.00;;;;;;5055333;28;19913;-59
2022/04/05 06:28:32;;;;;;;;;;;20.70;37.10;;;;;;5053009;28;20391;-61
2022/04/05 06:30:57;;;;;;;;;;;20.70;37.10;;;;;;5052277;28;20019;-60
2022/04/05 06:33:23;;;;;;;;;;;20.70;37.10;;;;;;5077813;28;20369;-60
2022/04/05 06:35:49;;;;;;;;;;;20.70;37.10;;;;;;5040829;28;19969;-60
2022/04/05 06:38:15;;;;;;;;;;;20.70;37.00;;;;;;5040621;28;19912;-60
2022/04/05 06:40:43;;;;;;;;;;;20.70;37.00;;;;;;5037938;28;19912;-60
2022/04/05 06:43:09;;;;;;;;;;;20.70;37.00;;;;;;5055038;28;19928;-60
2022/04/05 06:45:35;;;;;;;;;;;20.70;36.90;;;;;;5075442;28;20382;-60
2022/04/05 06:48:00;;;;;;;;;;;20.70;37.00;;;;;;5057534;28;19917;-60
2022/04/05 06:50:26;;;;;;;;;;;20.70;37.00;;;;;;5057424;28;19912;-60
2022/04/05 06:52:52;;;;;;;;;;;20.70;37.00;;;;;;5056883;28;19909;-60
2022/04/05 06:55:18;;;;;;;;;;;20.70;37.00;;;;;;5052775;28;19951;-60
2022/04/05 06:57:43;;;;;;;;;;;20.70;37.20;;;;;;5038047;28;19916;-60
2022/04/05 07:00:09;;;;;;;;;;;20.70;37.10;;;;;;5046596;28;19916;-60
2022/04/05 07:02:35;;;;;;;;;;;20.70;37.10;;;;;;5056738;28;19916;-60
2022/04/05 07:05:01;;;;;;;;;;;20.70;37.20;;;;;;5073638;28;19912;-60
2022/04/05 07:07:26;;;;;;;;;;;20.70;37.10;;;;;;5077103;28;19912;-60
2022/04/05 07:09:52;;;;;;;;;;;20.80;37.20;;;;;;5089477;28;19915;-60
2022/04/05 07:12:17;;;;;;;;;;;20.70;37.00;;;;;;5084088;28;20195;-60
2022/04/05 07:14:42;;;;;;;;;;;20.80;37.20;;;;;;5054278;28;20106;-60
2022/04/05 07:17:08;;;;;;;;;;;20.80;37.10;;;;;;5045379;28;19913;-60
2022/04/05 07:19:33;;;;;;;;;;;20.80;37.20;;;;;;5066057;28;20019;-60
2022/04/05 07:21:59;;;;;;;;;;;20.80;37.30;;;;;;5055736;28;19924;-60
2022/04/05 07:24:26;;;;;;;;;;;20.80;37.30;;;;;;5032535;28;19913;-60
2022/04/05 07:26:52;;;;;;;;;;;20.70;37.20;;;;;;5028383;28;19917;-60
2022/04/05 07:29:17;;;;;;;;;;;20.80;37.30;;;;;;5030563;28;19921;-60
2022/04/05 07:31:43;;;;;;;;;;;20.70;37.40;;;;;;5048357;28;19921;-60
2022/04/05 07:34:08;;;;;;;;;;;20.70;37.50;;;;;;5031414;28;19952;-61
2022/04/05 07:36:34;;;;;;;;;;;20.70;38.00;;;;;;5036410;28;19928;-60
2022/04/05 07:38:59;;;;;;;;;;;20.70;37.90;;;;;;5034991;28;20462;-61
2022/04/05 07:41:25;;;;;;;;;;;21.10;38.00;;;;;;5033961;28;19913;-61
2022/04/05 07:43:50;;;;;;;;;;;21.50;37.50;;;;;;5015897;28;19916;-60
2022/04/05 07:46:16;;;;;;;;;;;22.00;37.00;;;;;;5028842;28;19916;-61
2022/04/05 07:48:42;;;;;;;;;;;22.40;36.70;;;;;;5049944;28;20366;-61
2022/04/05 07:51:07;;;;;;;;;;;22.60;36.20;;;;;;5048534;28;19923;-61
2022/04/05 07:53:33;;;;;;;;;;;22.80;36.30;;;;;;5030728;28;19912;-61
2022/04/05 07:55:58;;;;;;;;;;;22.80;36.10;;;;;;5032726;28;20315;-61
2022/04/05 07:58:24;;;;;;;;;;;22.90;36.20;;;;;;5025292;28;20022;-61
2022/04/05 08:00:49;;;;;;;;;;;23.00;35.90;;;;;;5052865;28;19917;-62
2022/04/05 08:03:15;;;;;;;;;;;23.10;36.10;;;;;;5053080;28;19924;-60
2022/04/05 08:05:41;;;;;;;;;;;23.30;35.80;;;;;;5032322;28;19917;-60
2022/04/05 08:08:07;;;;;;;;;;;23.40;35.70;;;;;;5018982;28;19975;-61
2022/04/05 08:10:33;;;;;;;;;;;23.50;35.50;;;;;;5033703;28;20004;-60
2022/04/05 08:13:00;;;;;;;;;;;23.50;35.40;;;;;;5032510;28;19992;-61
2022/04/05 08:15:25;;;;;;;;;;;23.70;35.30;;;;;;5015678;28;20365;-61
2022/04/05 08:17:51;;;;;;;;;;;23.70;35.10;;;;;;5035077;28;19966;-60
2022/04/05 08:20:17;;;;;;;;;;;23.80;35.10;;;;;;5018618;28;19924;-61
2022/04/05 08:22:43;;;;;;;;;;;23.80;35.00;;;;;;5061377;28;19977;-61
2022/04/05 08:25:09;;;;;;;;;;;23.90;35.00;;;;;;5048009;28;19916;-61
2022/04/05 08:27:34;;;;;;;;;;;24.00;34.90;;;;;;5043958;28;19920;-61
2022/04/05 08:30:00;;;;;;;;;;;24.00;34.80;;;;;;5068316;28;19912;-60
2022/04/05 08:32:28;;;;;;;;;;;24.10;34.90;;;;;;5054857;28;20135;-60
2022/04/05 08:34:53;;;;;;;;;;;24.00;34.80;;;;;;5059898;28;20650;-61
2022/04/05 08:37:19;;;;;;;;;;;24.00;34.90;;;;;;5059383;28;19948;-60
2022/04/05 08:39:44;;;;;;;;;;;24.10;35.10;;;;;;5051722;28;20526;-61
2022/04/05 08:42:10;;;;;;;;;;;24.00;35.00;;;;;;5056855;28;19917;-60
2022/04/05 08:44:36;;;;;;;;;;;24.00;35.10;;;;;;5072139;28;19913;-59
2022/04/05 08:47:02;;;;;;;;;;;24.00;35.20;;;;;;5070746;28;19916;-59
2022/04/05 08:49:28;;;;;;;;;;;23.90;35.30;;;;;;5060107;28;20308;-59
2022/04/05 08:51:53;;;;;;;;;;;23.80;35.30;;;;;;5056848;28;19912;-60
2022/04/05 08:54:19;;;;;;;;;;;23.80;35.30;;;;;;5047444;28;19913;-59
2022/04/05 08:56:44;;;;;;;;;;;23.80;35.40;;;;;;5053711;28;19917;-61
2022/04/05 08:59:10;;;;;;;;;;;23.80;35.40;;;;;;5054286;28;20515;-60
2022/04/05 09:01:35;;;;;;;;;;;23.80;35.50;;;;;;5065604;28;20018;-60
2022/04/05 09:04:01;;;;;;;;;;;23.80;35.50;;;;;;5051852;28;20054;-60
2022/04/05 09:06:29;;;;;;;;;;;23.70;35.50;;;;;;5047157;28;19908;-59
2022/04/05 09:09:07;;;;;;;;;;;23.70;35.40;;;;;;5051564;28;19995;-60
2022/04/05 09:11:33;;;;;;;;;;;23.80;35.40;;;;;;5063873;28;19912;-60
2022/04/05 09:13:59;;;;;;;;;;;23.80;35.40;;;;;;5058124;28;19912;-61
2022/04/05 09:16:30;;;;;;;;;;;23.80;35.20;;;;;;5046993;28;20283;-61
2022/04/05 09:18:55;;;;;;;;;;;23.80;35.20;;;;;;5053985;28;19913;-60
2022/04/05 09:21:21;;;;;;;;;;;23.90;35.10;;;;;;5062588;28;20012;-60
2022/04/05 09:23:52;;;;;;;;;;;24.00;35.00;;;;;;5040935;28;19936;-61
2022/04/05 09:26:18;;;;;;;;;;;24.00;34.90;;;;;;5032202;28;19917;-59
2022/04/05 09:28:44;;;;;;;;;;;24.10;34.90;;;;;;5029480;28;19917;-59
2022/04/05 09:31:20;;;;;;;;;;;24.10;34.90;;;;;;5036407;28;20356;-60
2022/04/05 09:34:05;;;;;;;;;;;24.10;34.90;;;;;;5042187;28;19919;-60
2022/04/05 09:36:37;;;;;;;;;;;24.10;34.80;;;;;;5038684;28;19909;-60
2022/04/05 09:39:09;;;;;;;;;;;24.10;34.80;;;;;;5015463;28;19913;-60
2022/04/05 09:41:35;;;;;;;;;;;24.10;34.80;;;;;;5040157;28;20288;-60
2022/04/05 09:44:00;;;;;;;;;;;24.10;34.80;;;;;;5021669;28;19917;-60
2022/04/05 09:46:26;;;;;;;;;;;24.10;34.80;;;;;;5024998;28;19947;-60
2022/04/05 09:49:00;;;;;;;;;;;24.10;34.80;;;;;;5036828;28;19923;-59
2022/04/05 09:51:25;;;;;;;;;;;24.10;34.70;;;;;;5048587;28;19932;-60
2022/04/05 09:53:51;;;;;;;;;;;24.10;34.80;;;;;;5046693;28;20265;-60
2022/04/05 09:56:17;;;;;;;;;;;24.10;34.80;;;;;;5037808;28;20369;-59
2022/04/05 09:58:46;;;;;;;;;;;24.10;34.80;;;;;;5046613;28;19913;-60
2022/04/05 10:01:12;;;;;;;;;;;24.10;34.80;;;;;;5033781;28;20361;-60
2022/04/05 10:03:41;;;;;;;;;;;24.10;34.70;;;;;;5039391;28;19916;-60
2022/04/05 10:06:06;;;;;;;;;;;24.10;34.70;;;;;;5045337;28;19916;-60
2022/04/05 10:08:32;;;;;;;;;;;24.20;34.80;;;;;;5028511;28;19917;-60
2022/04/05 10:10:59;;;;;;;;;;;24.20;34.80;;;;;;5031726;28;19913;-60
2022/04/05 10:13:24;;;;;;;;;;;24.20;34.80;;;;;;5054228;28;20339;-60
2022/04/05 10:15:51;;;;;;;;;;;24.20;34.80;;;;;;5066154;28;19912;-60
2022/04/05 10:18:17;;;;;;;;;;;24.10;34.80;;;;;;5068382;28;20391;-60
2022/04/05 10:20:42;;;;;;;;;;;24.10;34.90;;;;;;5050304;28;19909;-61
2022/04/05 10:23:08;;;;;;;;;;;24.10;35.00;;;;;;5074803;28;20398;-61
2022/04/05 10:25:34;;;;;;;;;;;24.00;35.00;;;;;;5072323;28;19912;-60
2022/04/05 10:27:59;;;;;;;;;;;24.00;35.00;;;;;;5044571;28;20015;-61
2022/04/05 10:30:31;;;;;;;;;;;24.00;35.00;;;;;;5071276;28;19947;-60
2022/04/05 10:33:12;;;;;;;;;;;24.00;35.00;;;;;;5050936;28;19912;-60
2022/04/05 10:35:54;;;;;;;;;;;24.00;34.90;;;;;;5067745;28;19954;-60
2022/04/05 10:38:19;;;;;;;;;;;24.10;34.90;;;;;;5083809;28;19957;-60
2022/04/05 10:41:03;;;;;;;;;;;24.10;34.80;;;;;;5051047;28;20488;-61
2022/04/05 10:43:29;;;;;;;;;;;24.10;34.80;;;;;;5072774;28;19955;-60
2022/04/05 10:45:54;;;;;;;;;;;24.10;34.80;;;;;;5071462;28;20395;-60
2022/04/05 10:48:23;;;;;;;;;;;24.20;34.80;;;;;;5061691;28;20655;-59
2022/04/05 10:51:01;;;;;;;;;;;24.20;34.70;;;;;;5054406;28;19913;-60
2022/04/05 10:53:31;;;;;;;;;;;24.20;34.80;;;;;;5066825;28;19913;-60
2022/04/05 10:56:03;;;;;;;;;;;24.20;34.80;;;;;;5043929;28;19919;-60
2022/04/05 10:58:29;;;;;;;;;;;24.20;34.70;;;;;;5076161;28;20443;-60
2022/04/05 11:01:13;;;;;;;;;;;24.30;34.70;;;;;;5037558;28;20003;-61
2022/04/05 11:03:39;;;;;;;;;;;24.30;34.60;;;;;;5074811;28;20439;-60
2022/04/05 11:06:04;;;;;;;;;;;24.30;34.50;;;;;;5054381;28;19917;-60
2022/04/05 11:08:30;;;;;;;;;;;24.30;34.50;;;;;;5063194;28;19912;-60
2022/04/05 11:10:56;;;;;;;;;;;24.30;34.40;;;;;;5058455;28;20383;-60
2022/04/05 11:13:23;;;;;;;;;;;24.30;34.40;;;;;;5055260;28;19916;-60
2022/04/05 11:15:49;;;;;;;;;;;24.30;34.40;;;;;;5058587;28;19912;-61
2022/04/05 11:18:15;;;;;;;;;;;24.30;34.40;;;;;;5058309;28;20011;-60
2022/04/05 11:20:46;;;;;;;;;;;24.30;34.30;;;;;;5053925;28;20664;-60
2022/04/05 11:23:13;;;;;;;;;;;24.30;34.40;;;;;;5054969;28;19932;-59
2022/04/05 11:25:38;;;;;;;;;;;24.30;34.40;;;;;;5072174;28;19921;-60
2022/04/05 11:28:10;;;;;;;;;;;24.40;34.50;;;;;;5076333;28;19916;-60
2022/04/05 11:30:43;;;;;;;;;;;24.30;34.60;;;;;;5052265;28;20365;-59
2022/04/05 11:33:09;;;;;;;;;;;24.30;34.60;;;;;;5050308;28;19940;-60
2022/04/05 11:35:44;;;;;;;;;;;24.40;34.70;;;;;;5054314;28;19940;-59
2022/04/05 11:38:27;;;;;;;;;;;24.40;34.70;;;;;;5067420;28;19916;-60
2022/04/05 11:40:57;;;;;;;;;;;24.40;34.60;;;;;;5070370;28;19913;-60
2022/04/05 11:43:27;;;;;;;;;;;24.40;34.60;;;;;;5073817;28;19913;-61
2022/04/05 11:45:54;;;;;;;;;;;24.40;34.60;;;;;;5038639;28;19983;-61
2022/04/05 11:48:20;;;;;;;;;;;24.40;34.60;;;;;;5055330;28;19928;-58
2022/04/05 11:50:46;;;;;;;;;;;24.40;34.60;;;;;;5070013;28;20378;-59
2022/04/05 11:53:18;;;;;;;;;;;24.40;34.60;;;;;;5063594;28;20023;-60
2022/04/05 11:56:02;;;;;;;;;;;24.40;34.60;;;;;;5053963;28;19963;-60
2022/04/05 11:58:29;;;;;;;;;;;24.50;34.60;;;;;;5039113;28;19943;-60
2022/04/05 12:00:54;;;;;;;;;;;24.50;34.60;;;;;;5051478;28;20629;-60
2022/04/05 12:03:20;;;;;;;;;;;24.50;34.50;;;;;;5053743;28;19972;-61
2022/04/05 12:05:45;;;;;;;;;;;24.40;34.50;;;;;;5030746;28;19908;-61
2022/04/05 12:08:14;;;;;;;;;;;24.40;34.50;;;;;;5053051;28;19921;-62
2022/04/05 12:10:40;;;;;;;;;;;24.40;34.50;;;;;;5055703;28;19912;-60
2022/04/05 12:13:05;;;;;;;;;;;24.30;35.10;;;;;;5039863;28;19954;-61
2022/04/05 12:15:32;;;;;;;;;;;24.30;34.50;;;;;;5053434;28;19913;-60
2022/04/05 12:18:17;;;;;;;;;;;24.30;34.40;;;;;;5032326;28;19909;-61
2022/04/05 12:21:01;;;;;;;;;;;24.40;34.40;;;;;;5053395;28;20411;-60
2022/04/05 12:23:30;;;;;;;;;;;24.40;34.40;;;;;;5060498;28;20195;-60
2022/04/05 12:26:12;;;;;;;;;;;24.40;34.40;;;;;;5050476;28;19957;-60
2022/04/05 12:28:40;;;;;;;;;;;24.50;34.40;;;;;;5054850;28;20334;-60
2022/04/05 12:31:15;;;;;;;;;;;24.50;34.30;;;;;;5048365;28;19912;-61
2022/04/05 12:33:41;;;;;;;;;;;24.50;34.30;;;;;;5055144;28;19923;-60
2022/04/05 12:36:07;;;;;;;;;;;24.50;34.40;;;;;;5042444;28;20356;-60
2022/04/05 12:38:33;;;;;;;;;;;24.50;34.40;;;;;;5041373;28;20377;-61
2022/04/05 12:40:59;;;;;;;;;;;24.50;34.50;;;;;;5066408;28;20371;-60
2022/04/05 12:43:25;;;;;;;;;;;24.50;34.60;;;;;;5055945;28;19912;-59
2022/04/05 12:45:51;;;;;;;;;;;24.40;34.70;;;;;;5063431;28;19999;-59
2022/04/05 12:48:17;;;;;;;;;;;24.30;34.70;;;;;;5088382;28;19912;-59
2022/04/05 12:50:43;;;;;;;;;;;24.30;34.80;;;;;;5075624;28;19915;-60
2022/04/05 12:53:08;;;;;;;;;;;24.30;34.90;;;;;;5056386;28;19908;-59
2022/04/05 12:55:34;;;;;;;;;;;24.30;35.00;;;;;;5055274;28;20288;-60
2022/04/05 12:58:00;;;;;;;;;;;24.20;35.10;;;;;;5051967;28;20019;-59
2022/04/05 13:00:30;;;;;;;;;;;24.10;35.10;;;;;;5053393;28;19916;-60
2022/04/05 13:02:59;;;;;;;;;;;24.10;35.30;;;;;;5020373;28;19916;-60
2022/04/05 13:08:15;;;;;;;;;;;24.00;35.30;;;;;;5058280;28;19919;-61
2022/04/05 13:10:41;;;;;;;;;;;24.00;35.30;;;;;;5073129;28;19986;-60
2022/04/05 13:13:20;;;;;;;;;;;24.00;35.30;;;;;;5055999;28;19908;-60
2022/04/05 13:15:46;;;;;;;;;;;24.00;35.30;;;;;;5056098;28;20261;-60
2022/04/05 13:18:12;;;;;;;;;;;24.00;35.30;;;;;;5039152;28;19920;-60
2022/04/05 13:20:38;;;;;;;;;;;24.00;35.30;;;;;;5055432;28;19909;-60
2022/04/05 13:23:04;;;;;;;;;;;24.00;35.30;;;;;;5068561;28;19920;-60
2022/04/05 13:25:33;;;;;;;;;;;24.00;35.20;;;;;;5055546;28;20299;-60
2022/04/05 13:28:02;;;;;;;;;;;24.00;35.20;;;;;;5055508;28;19986;-60
2022/04/05 13:30:27;;;;;;;;;;;24.00;35.20;;;;;;5073993;28;19915;-60
2022/04/05 13:33:05;;;;;;;;;;;23.90;35.10;;;;;;5035420;28;19916;-60
2022/04/05 13:35:31;;;;;;;;;;;23.90;35.10;;;;;;5050701;28;19923;-60
2022/04/05 13:37:56;;;;;;;;;;;24.00;35.20;;;;;;5056060;28;19995;-60
2022/04/05 13:40:22;;;;;;;;;;;24.00;35.10;;;;;;5060957;28;20315;-60
2022/04/05 13:42:48;;;;;;;;;;;24.00;35.20;;;;;;5067760;28;20319;-60
2022/04/05 13:45:13;;;;;;;;;;;24.00;35.20;;;;;;5074099;28;19962;-60
2022/04/05 13:47:40;;;;;;;;;;;24.00;35.30;;;;;;5055629;28;19926;-60
2022/04/05 13:50:06;;;;;;;;;;;24.00;35.30;;;;;;5052909;28;19913;-60
2022/04/05 13:52:31;;;;;;;;;;;24.10;35.20;;;;;;5036840;28;20341;-60
2022/04/05 13:54:57;;;;;;;;;;;24.10;35.20;;;;;;5045838;28;19938;-60
2022/04/05 13:57:22;;;;;;;;;;;24.10;35.20;;;;;;5059852;28;20199;-60
2022/04/05 13:59:48;;;;;;;;;;;24.20;35.80;;;;;;5033419;28;19928;-60
2022/04/05 14:02:14;;;;;;;;;;;24.20;35.10;;;;;;5038067;28;19924;-60
2022/04/05 14:04:40;;;;;;;;;;;24.20;35.30;;;;;;5067622;28;19912;-60
2022/04/05 14:07:06;;;;;;;;;;;24.20;35.40;;;;;;5056306;28;20360;-60
2022/04/05 14:09:31;;;;;;;;;;;24.20;35.70;;;;;;5054322;28;19920;-60
2022/04/05 14:11:57;;;;;;;;;;;24.20;36.00;;;;;;5040023;28;19972;-60
2022/04/05 14:14:22;;;;;;;;;;;24.10;36.10;;;;;;5034307;28;19938;-60
2022/04/05 14:16:48;;;;;;;;;;;24.10;36.10;;;;;;5042605;28;19913;-61